»·PEaware :: N122BB KSBA-KBUR

N122BB :: KSBA-KBUR

FLIGHT INFORMATION

Flight Status: Arrived
Operator: Privately registered:
United States
More flights under this callsign
Pilot: Anonymous 19508 (19508)
Aircraft: CESSNA 172 SKYHAWK
(C172)
More flights by this aircraft type
Origin: KSBA Santa Barbara Mun
United States
Destination: KBUR Bob Hope-Burbank
United States
More flights between these airports :: More routes between these airports
Route: KSBA KBUR
File this flight plan on PilotEdge
Remarks: CAT8
Altitude:
(Current/Filed)
5,500ft
Speed:
(Current/Filed)
118kts
Departed: 08-Sep-18 08:41 PM
Arrived: 08-Sep-18 09:31 PM
Distance/Time
Traveled:
74nm/0:49
Distance/Time
To Go:
Arrived

Flight Plot

Page will automatically refresh every two minutes.

Flight plan parsing failed; only flown route is shown


Map Options




Map Legend


Flown Route
Filed Route
Departure Airport
Arrival Airport
Navaid (VOR, NDB)
Fix

Horizontal Profiles

Position Reports

Time Latitude Longitude Heading Altitude Ground
Speed
08-Sep-18 20:37 34.428838 -119.834426 171 10ft 0kts
08-Sep-18 20:38 34.428838 -119.834426 171 10ft 0kts
08-Sep-18 20:39 34.428838 -119.834426 171 10ft 0kts
08-Sep-18 20:40 34.428838 -119.834426 171 10ft 0kts
08-Sep-18 20:41 34.428838 -119.834426 171 10ft 0kts
08-Sep-18 20:42 34.428838 -119.834426 171 10ft 0kts
08-Sep-18 20:43 34.427825 -119.845446 270 151ft 93kts
08-Sep-18 20:44 34.424472 -119.886662 261 752ft 125kts
08-Sep-18 20:45 34.419741 -119.930462 262 1414ft 132kts
08-Sep-18 20:46 34.415266 -119.972799 263 1370ft 114kts
08-Sep-18 20:47 34.410978 -120.014423 263 1399ft 134kts
08-Sep-18 20:48 34.406006 -120.060425 262 1353ft 138kts
08-Sep-18 20:49 34.400380 -120.106146 262 1437ft 133kts
08-Sep-18 20:50 34.395426 -120.151915 261 1396ft 139kts
08-Sep-18 20:51 34.393678 -120.198015 305 1428ft 133kts
08-Sep-18 20:52 34.429462 -120.195852 17 1371ft 137kts
08-Sep-18 20:53 34.452612 -120.167470 93 1825ft 132kts
08-Sep-18 20:54 34.446365 -120.126416 107 2634ft 134kts
08-Sep-18 20:55 34.439378 -120.086848 96 3631ft 104kts
08-Sep-18 20:56 34.433830 -120.053432 108 4678ft 100kts
08-Sep-18 20:57 34.426180 -120.014328 99 5101ft 130kts
08-Sep-18 20:58 34.418629 -119.970619 101 5448ft 142kts
08-Sep-18 20:59 34.410200 -119.922407 105 5474ft 145kts
08-Sep-18 21:00 34.400235 -119.874788 102 5510ft 147kts
08-Sep-18 21:01 34.391813 -119.826055 100 5526ft 147kts
08-Sep-18 21:02 34.383669 -119.777197 109 5475ft 150kts
08-Sep-18 21:03 34.380758 -119.727849 95 5511ft 147kts
08-Sep-18 21:04 34.376828 -119.678514 94 5529ft 147kts
08-Sep-18 21:05 34.371776 -119.628822 97 5478ft 148kts
08-Sep-18 21:06 34.365709 -119.580399 98 5606ft 146kts
08-Sep-18 21:07 34.359293 -119.531338 98 5606ft 147kts
08-Sep-18 21:08 34.352803 -119.482266 98 5606ft 148kts
08-Sep-18 21:09 34.346273 -119.433121 98 5606ft 148kts
08-Sep-18 21:10 34.339727 -119.383916 98 5606ft 148kts
08-Sep-18 21:11 34.333490 -119.336737 98 5606ft 147kts
08-Sep-18 21:12 34.327038 -119.288404 99 5606ft 147kts
08-Sep-18 21:13 34.320407 -119.239566 99 5606ft 147kts
08-Sep-18 21:14 34.313790 -119.190691 99 5606ft 147kts
08-Sep-18 21:15 34.306956 -119.141766 98 5606ft 147kts
08-Sep-18 21:16 34.300378 -119.092887 99 5606ft 147kts
08-Sep-18 21:17 34.293737 -119.044058 99 5606ft 147kts
08-Sep-18 21:18 34.287078 -118.995312 99 5606ft 147kts
08-Sep-18 21:19 34.280437 -118.946474 98 5606ft 147kts
08-Sep-18 21:20 34.274629 -118.897499 98 5606ft 147kts
08-Sep-18 21:21 34.267998 -118.848570 99 5606ft 147kts
08-Sep-18 21:22 34.261112 -118.798676 99 5331ft 156kts
08-Sep-18 21:23 34.253909 -118.746627 99 4831ft 157kts
08-Sep-18 21:24 34.246632 -118.694223 99 4330ft 158kts
08-Sep-18 21:25 34.239339 -118.641933 99 3829ft 158kts
08-Sep-18 21:26 34.232003 -118.589447 99 3349ft 157kts
08-Sep-18 21:27 34.224980 -118.539372 99 3348ft 149kts
08-Sep-18 21:28 34.250104 -118.529851 332 3624ft 148kts
08-Sep-18 21:29 34.235800 -118.517229 106 3625ft 130kts
08-Sep-18 21:30 34.223530 -118.469977 107 3190ft 159kts
08-Sep-18 21:31 34.208896 -118.419665 102 2595ft 154kts
08-Sep-18 21:32 34.198338 -118.382888 94 1207ft 81kts
08-Sep-18 21:33 34.197888 -118.365867 97 723ft 37kts
08-Sep-18 21:34 34.198819 -118.364602 359 723ft 0kts
08-Sep-18 21:35 34.199584 -118.363780 101 722ft 0kts

Navigation Log

Ident Type
Flight plan parsing failed, navigation log unavailable